sensor_id;sensor_type;location;lat;lon;timestamp;pressure;altitude;pressure_sealevel;temperature;humidity
76132;BME280;64877;50.994;13.650;2022-12-05T00:01:50;99526.84;;;6.12;83.38
76132;BME280;64877;50.994;13.650;2022-12-05T00:04:16;99525.19;;;6.10;82.82
76132;BME280;64877;50.994;13.650;2022-12-05T00:06:42;99521.94;;;6.05;82.62
76132;BME280;64877;50.994;13.650;2022-12-05T00:09:11;99528.94;;;6.07;82.08
76132;BME280;64877;50.994;13.650;2022-12-05T00:11:38;99519.06;;;6.08;82.79
76132;BME280;64877;50.994;13.650;2022-12-05T00:14:05;99519.72;;;6.11;82.73
76132;BME280;64877;50.994;13.650;2022-12-05T00:16:31;99521.66;;;6.09;83.86
76132;BME280;64877;50.994;13.650;2022-12-05T00:19:01;99517.34;;;6.07;83.65
76132;BME280;64877;50.994;13.650;2022-12-05T00:21:28;99528.06;;;6.07;83.93
76132;BME280;64877;50.994;13.650;2022-12-05T00:23:55;99529.88;;;6.06;84.97
76132;BME280;64877;50.994;13.650;2022-12-05T00:26:21;99533.81;;;6.15;81.14
76132;BME280;64877;50.994;13.650;2022-12-05T00:28:47;99541.28;;;6.10;82.53
76132;BME280;64877;50.994;13.650;2022-12-05T00:31:18;99535.16;;;6.08;83.44
76132;BME280;64877;50.994;13.650;2022-12-05T00:33:45;99532.47;;;6.08;83.47
76132;BME280;64877;50.994;13.650;2022-12-05T00:36:16;99535.22;;;6.06;83.56
76132;BME280;64877;50.994;13.650;2022-12-05T00:38:42;99533.44;;;6.07;84.06
76132;BME280;64877;50.994;13.650;2022-12-05T00:41:12;99532.53;;;6.06;84.31
76132;BME280;64877;50.994;13.650;2022-12-05T00:43:38;99547.78;;;6.06;84.39
76132;BME280;64877;50.994;13.650;2022-12-05T00:46:09;99539.94;;;6.03;84.77
76132;BME280;64877;50.994;13.650;2022-12-05T00:48:35;99549.69;;;6.04;84.80
76132;BME280;64877;50.994;13.650;2022-12-05T00:53:30;99546.06;;;6.05;84.00
76132;BME280;64877;50.994;13.650;2022-12-05T00:55:56;99553.13;;;6.06;83.05
76132;BME280;64877;50.994;13.650;2022-12-05T00:58:25;99538.78;;;6.35;80.48
76132;BME280;64877;50.994;13.650;2022-12-05T01:00:51;99529.81;;;6.22;81.37
76132;BME280;64877;50.994;13.650;2022-12-05T01:03:16;99535.94;;;6.24;81.25
76132;BME280;64877;50.994;13.650;2022-12-05T01:05:41;99529.88;;;6.20;81.55
76132;BME280;64877;50.994;13.650;2022-12-05T01:08:07;99539.75;;;6.20;81.04
76132;BME280;64877;50.994;13.650;2022-12-05T01:10:32;99538.78;;;6.21;81.05
76132;BME280;64877;50.994;13.650;2022-12-05T01:12:58;99545.31;;;6.17;81.79
76132;BME280;64877;50.994;13.650;2022-12-05T01:15:23;99539.97;;;6.17;81.59
76132;BME280;64877;50.994;13.650;2022-12-05T01:17:48;99549.72;;;6.18;81.99
76132;BME280;64877;50.994;13.650;2022-12-05T01:20:14;99544.53;;;6.15;81.17
76132;BME280;64877;50.994;13.650;2022-12-05T01:22:39;99539.28;;;6.13;81.61
76132;BME280;64877;50.994;13.650;2022-12-05T01:25:05;99542.06;;;6.12;81.38
76132;BME280;64877;50.994;13.650;2022-12-05T01:27:30;99540.03;;;6.15;81.29
76132;BME280;64877;50.994;13.650;2022-12-05T01:29:56;99546.81;;;6.21;81.43
76132;BME280;64877;50.994;13.650;2022-12-05T01:32:22;99539.97;;;6.17;81.60
76132;BME280;64877;50.994;13.650;2022-12-05T01:34:47;99539.97;;;6.17;81.29
76132;BME280;64877;50.994;13.650;2022-12-05T01:37:13;99541.00;;;6.14;81.86
76132;BME280;64877;50.994;13.650;2022-12-05T01:39:38;99539.06;;;6.16;81.28
76132;BME280;64877;50.994;13.650;2022-12-05T01:42:04;99545.09;;;6.20;81.66
76132;BME280;64877;50.994;13.650;2022-12-05T01:46:55;99546.66;;;6.24;81.88
76132;BME280;64877;50.994;13.650;2022-12-05T01:49:35;99560.16;;;6.22;81.69
76132;BME280;64877;50.994;13.650;2022-12-05T01:52:04;99557.56;;;6.21;81.39
76132;BME280;64877;50.994;13.650;2022-12-05T01:54:30;99551.44;;;6.19;81.76
76132;BME280;64877;50.994;13.650;2022-12-05T01:57:01;99550.69;;;6.17;81.17
76132;BME280;64877;50.994;13.650;2022-12-05T01:59:30;99552.19;;;6.21;80.82
76132;BME280;64877;50.994;13.650;2022-12-05T02:01:56;99551.16;;;6.24;81.17
76132;BME280;64877;50.994;13.650;2022-12-05T02:04:22;99554.88;;;6.21;80.83
76132;BME280;64877;50.994;13.650;2022-12-05T02:06:47;99550.09;;;6.26;80.44
76132;BME280;64877;50.994;13.650;2022-12-05T02:09:13;99543.50;;;6.32;79.35
76132;BME280;64877;50.994;13.650;2022-12-05T02:11:58;99545.63;;;6.27;80.74
76132;BME280;64877;50.994;13.650;2022-12-05T02:20:29;99552.00;;;6.24;80.82
76132;BME280;64877;50.994;13.650;2022-12-05T02:28:27;99559.31;;;6.22;81.27
76132;BME280;64877;50.994;13.650;2022-12-05T02:30:59;99557.47;;;6.22;80.97
76132;BME280;64877;50.994;13.650;2022-12-05T02:36:26;99554.81;;;6.22;81.39
76132;BME280;64877;50.994;13.650;2022-12-05T02:41:30;99547.22;;;6.29;80.78
76132;BME280;64877;50.994;13.650;2022-12-05T02:44:13;99544.56;;;6.29;80.58
76132;BME280;64877;50.994;13.650;2022-12-05T02:46:39;99540.91;;;6.30;80.41
76132;BME280;64877;50.994;13.650;2022-12-05T02:49:08;99536.50;;;6.29;80.84
76132;BME280;64877;50.994;13.650;2022-12-05T02:51:39;99540.31;;;6.25;80.42
76132;BME280;64877;50.994;13.650;2022-12-05T02:54:09;99541.19;;;6.26;81.03
76132;BME280;64877;50.994;13.650;2022-12-05T02:56:36;99528.84;;;6.23;80.83
76132;BME280;64877;50.994;13.650;2022-12-05T02:59:03;99530.56;;;6.24;81.04
76132;BME280;64877;50.994;13.650;2022-12-05T03:01:30;99538.50;;;6.26;80.33
76132;BME280;64877;50.994;13.650;2022-12-05T03:03:58;99538.50;;;6.26;80.67
76132;BME280;64877;50.994;13.650;2022-12-05T03:06:32;99536.88;;;6.23;81.40
76132;BME280;64877;50.994;13.650;2022-12-05T03:09:12;99530.75;;;6.21;80.86
76132;BME280;64877;50.994;13.650;2022-12-05T03:11:40;99530.75;;;6.21;81.06
76132;BME280;64877;50.994;13.650;2022-12-05T03:14:13;99531.53;;;6.23;80.67
76132;BME280;64877;50.994;13.650;2022-12-05T03:16:43;99534.97;;;6.25;79.77
76132;BME280;64877;50.994;13.650;2022-12-05T03:19:21;99534.78;;;6.42;79.14
76132;BME280;64877;50.994;13.650;2022-12-05T03:21:59;99535.94;;;6.38;79.18
76132;BME280;64877;50.994;13.650;2022-12-05T03:24:26;99535.47;;;6.32;79.50
76132;BME280;64877;50.994;13.650;2022-12-05T03:27:24;99533.44;;;6.35;79.27
76132;BME280;64877;50.994;13.650;2022-12-05T03:29:55;99535.81;;;6.40;79.23
76132;BME280;64877;50.994;13.650;2022-12-05T03:35:22;99540.16;;;6.28;79.56
76132;BME280;64877;50.994;13.650;2022-12-05T03:37:56;99543.00;;;6.25;80.25
76132;BME280;64877;50.994;13.650;2022-12-05T03:40:51;99547.13;;;6.31;79.57
76132;BME280;64877;50.994;13.650;2022-12-05T03:43:43;99558.72;;;6.31;79.81
76132;BME280;64877;50.994;13.650;2022-12-05T03:46:17;99555.28;;;6.29;80.24
76132;BME280;64877;50.994;13.650;2022-12-05T03:48:59;99560.47;;;6.32;79.80
76132;BME280;64877;50.994;13.650;2022-12-05T03:51:34;99556.72;;;6.35;80.01
76132;BME280;64877;50.994;13.650;2022-12-05T03:54:05;99549.81;;;6.31;79.45
76132;BME280;64877;50.994;13.650;2022-12-05T03:56:39;99555.38;;;6.28;79.95
76132;BME280;64877;50.994;13.650;2022-12-05T03:59:21;99551.63;;;6.30;80.30
76132;BME280;64877;50.994;13.650;2022-12-05T04:01:51;99554.88;;;6.35;79.88
76132;BME280;64877;50.994;13.650;2022-12-05T04:04:43;99551.63;;;6.30;79.49
76132;BME280;64877;50.994;13.650;2022-12-05T04:07:11;99543.88;;;6.26;79.82
76132;BME280;64877;50.994;13.650;2022-12-05T04:09:46;99555.38;;;6.28;79.56
76132;BME280;64877;50.994;13.650;2022-12-05T04:12:18;99556.25;;;6.28;79.82
76132;BME280;64877;50.994;13.650;2022-12-05T04:14:47;99555.28;;;6.29;80.06
76132;BME280;64877;50.994;13.650;2022-12-05T04:17:34;99551.56;;;6.32;79.89
76132;BME280;64877;50.994;13.650;2022-12-05T04:20:16;99567.34;;;6.36;79.70
76132;BME280;64877;50.994;13.650;2022-12-05T04:23:02;99553.44;;;6.30;78.92
76132;BME280;64877;50.994;13.650;2022-12-05T04:28:35;99560.47;;;6.32;79.19
76132;BME280;64877;50.994;13.650;2022-12-05T04:31:20;99557.41;;;6.38;78.55
76132;BME280;64877;50.994;13.650;2022-12-05T04:33:51;99553.34;;;6.31;79.11
76132;BME280;64877;50.994;13.650;2022-12-05T04:36:26;99557.00;;;6.30;79.32
76132;BME280;64877;50.994;13.650;2022-12-05T04:39:19;99562.56;;;6.27;79.59
76132;BME280;64877;50.994;13.650;2022-12-05T04:41:52;99560.63;;;6.29;79.33
76132;BME280;64877;50.994;13.650;2022-12-05T04:44:23;99566.38;;;6.23;80.54
76132;BME280;64877;50.994;13.650;2022-12-05T04:46:51;99564.84;;;6.33;80.90
76132;BME280;64877;50.994;13.650;2022-12-05T04:49:23;99561.50;;;6.30;79.91
76132;BME280;64877;50.994;13.650;2022-12-05T04:51:53;99560.47;;;6.32;79.35
76132;BME280;64877;50.994;13.650;2022-12-05T04:54:32;99578.06;;;6.36;78.96
76132;BME280;64877;50.994;13.650;2022-12-05T04:57:17;99582.56;;;6.36;79.35
76132;BME280;64877;50.994;13.650;2022-12-05T04:59:43;99578.28;;;6.33;79.12
76132;BME280;64877;50.994;13.650;2022-12-05T05:02:12;99583.22;;;6.25;79.91
76132;BME280;64877;50.994;13.650;2022-12-05T05:04:42;99579.22;;;6.32;79.30
76132;BME280;64877;50.994;13.650;2022-12-05T05:07:11;99579.31;;;6.31;80.01
76132;BME280;64877;50.994;13.650;2022-12-05T05:09:37;99579.59;;;6.26;79.64
76132;BME280;64877;50.994;13.650;2022-12-05T05:12:03;99583.16;;;6.27;79.85
76132;BME280;64877;50.994;13.650;2022-12-05T05:14:29;99586.88;;;6.24;79.76
76132;BME280;64877;50.994;13.650;2022-12-05T05:16:55;99582.09;;;6.29;79.45
76132;BME280;64877;50.994;13.650;2022-12-05T05:19:20;99592.13;;;6.26;79.58
76132;BME280;64877;50.994;13.650;2022-12-05T05:21:46;99585.44;;;6.18;79.96
76132;BME280;64877;50.994;13.650;2022-12-05T05:24:13;99582.47;;;6.23;80.17
76132;BME280;64877;50.994;13.650;2022-12-05T05:26:42;99587.63;;;6.26;79.63
76132;BME280;64877;50.994;13.650;2022-12-05T05:29:09;99588.88;;;6.20;80.18
76132;BME280;64877;50.994;13.650;2022-12-05T05:31:35;99592.25;;;6.24;79.77
76132;BME280;64877;50.994;13.650;2022-12-05T05:34:01;99590.69;;;6.20;80.27
76132;BME280;64877;50.994;13.650;2022-12-05T05:36:28;99595.47;;;6.15;80.98
76132;BME280;64877;50.994;13.650;2022-12-05T05:38:56;99596.25;;;6.17;81.02
76132;BME280;64877;50.994;13.650;2022-12-05T05:41:31;99593.59;;;6.17;81.29
76132;BME280;64877;50.994;13.650;2022-12-05T05:43:57;99597.88;;;6.19;81.55
76132;BME280;64877;50.994;13.650;2022-12-05T05:46:26;99607.91;;;6.16;81.73
76132;BME280;64877;50.994;13.650;2022-12-05T05:48:51;99601.78;;;6.14;81.98
76132;BME280;64877;50.994;13.650;2022-12-05T05:51:18;99607.31;;;6.11;81.70
76132;BME280;64877;50.994;13.650;2022-12-05T05:53:44;99611.75;;;6.12;82.13
76132;BME280;64877;50.994;13.650;2022-12-05T05:56:12;99617.28;;;6.09;82.60
76132;BME280;64877;50.994;13.650;2022-12-05T05:58:38;99617.66;;;6.03;83.58
76132;BME280;64877;50.994;13.650;2022-12-05T06:01:12;99617.84;;;6.00;82.92
76132;BME280;64877;50.994;13.650;2022-12-05T06:03:38;99621.47;;;5.99;83.23
76132;BME280;64877;50.994;13.650;2022-12-05T06:06:07;99625.13;;;5.98;83.62
76132;BME280;64877;50.994;13.650;2022-12-05T06:08:36;99627.88;;;5.96;84.10
76132;BME280;64877;50.994;13.650;2022-12-05T06:11:05;99628.94;;;5.93;83.87
76132;BME280;64877;50.994;13.650;2022-12-05T06:13:31;99626.34;;;5.92;84.69
76132;BME280;64877;50.994;13.650;2022-12-05T06:15:56;99628.06;;;5.93;83.56
76132;BME280;64877;50.994;13.650;2022-12-05T06:18:21;99628.94;;;5.93;84.65
76132;BME280;64877;50.994;13.650;2022-12-05T06:20:54;99631.25;;;6.00;84.20
76132;BME280;64877;50.994;13.650;2022-12-05T06:23:21;99635.66;;;6.01;83.70
76132;BME280;64877;50.994;13.650;2022-12-05T06:25:47;99636.50;;;6.01;83.95
76132;BME280;64877;50.994;13.650;2022-12-05T06:28:13;99644.66;;;6.00;84.62
76132;BME280;64877;50.994;13.650;2022-12-05T06:30:38;99644.75;;;5.98;84.56
76132;BME280;64877;50.994;13.650;2022-12-05T06:33:04;99652.25;;;5.91;84.78
76132;BME280;64877;50.994;13.650;2022-12-05T06:35:29;99654.94;;;5.91;84.85
76132;BME280;64877;50.994;13.650;2022-12-05T06:37:55;99664.53;;;5.95;84.43
76132;BME280;64877;50.994;13.650;2022-12-05T06:40:20;99665.22;;;5.99;84.42
76132;BME280;64877;50.994;13.650;2022-12-05T06:42:46;99668.59;;;6.03;84.18
76132;BME280;64877;50.994;13.650;2022-12-05T06:45:11;99674.72;;;6.05;83.84
76132;BME280;64877;50.994;13.650;2022-12-05T06:47:36;99675.59;;;6.05;83.22
76132;BME280;64877;50.994;13.650;2022-12-05T06:50:02;99678.19;;;6.07;83.50
76132;BME280;64877;50.994;13.650;2022-12-05T06:52:28;99681.81;;;6.06;82.99
76132;BME280;64877;50.994;13.650;2022-12-05T06:54:53;99689.09;;;6.04;83.62
76132;BME280;64877;50.994;13.650;2022-12-05T06:57:18;99692.72;;;6.03;83.91
76132;BME280;64877;50.994;13.650;2022-12-05T06:59:44;99686.41;;;6.04;83.61
76132;BME280;64877;50.994;13.650;2022-12-05T07:02:11;99682.75;;;6.05;83.75
76132;BME280;64877;50.994;13.650;2022-12-05T07:04:37;99684.47;;;6.06;84.00
76132;BME280;64877;50.994;13.650;2022-12-05T07:07:02;99677.41;;;6.05;83.04
76132;BME280;64877;50.994;13.650;2022-12-05T07:09:28;99684.16;;;5.96;83.52
76132;BME280;64877;50.994;13.650;2022-12-05T07:12:15;99681.47;;;5.96;83.53
76132;BME280;64877;50.994;13.650;2022-12-05T07:14:41;99689.34;;;5.99;84.09
76132;BME280;64877;50.994;13.650;2022-12-05T07:17:07;99688.38;;;6.00;84.05
76132;BME280;64877;50.994;13.650;2022-12-05T07:19:33;99687.25;;;6.04;82.65
76132;BME280;64877;50.994;13.650;2022-12-05T07:21:58;99683.34;;;6.10;82.50
76132;BME280;64877;50.994;13.650;2022-12-05T07:24:24;99690.63;;;6.08;82.65
76132;BME280;64877;50.994;13.650;2022-12-05T07:26:49;99677.31;;;6.06;82.81
76132;BME280;64877;50.994;13.650;2022-12-05T07:29:15;99691.88;;;6.02;83.86
76132;BME280;64877;50.994;13.650;2022-12-05T07:31:40;99691.16;;;5.99;83.79
76132;BME280;64877;50.994;13.650;2022-12-05T07:34:05;99704.66;;;5.97;83.99
76132;BME280;64877;50.994;13.650;2022-12-05T07:36:31;99706.41;;;5.98;84.77
76132;BME280;64877;50.994;13.650;2022-12-05T07:38:57;99707.06;;;6.02;84.65
76132;BME280;64877;50.994;13.650;2022-12-05T07:41:25;99706.03;;;6.04;84.24
76132;BME280;64877;50.994;13.650;2022-12-05T07:43:52;99695.47;;;6.01;84.67
76132;BME280;64877;50.994;13.650;2022-12-05T07:46:19;99703.44;;;6.03;84.62
76132;BME280;64877;50.994;13.650;2022-12-05T07:48:46;99713.31;;;6.02;84.89
76132;BME280;64877;50.994;13.650;2022-12-05T07:51:11;99712.41;;;6.02;84.80
76132;BME280;64877;50.994;13.650;2022-12-05T07:53:37;99707.06;;;6.02;84.81
76132;BME280;64877;50.994;13.650;2022-12-05T07:56:05;99712.25;;;6.05;84.50
76132;BME280;64877;50.994;13.650;2022-12-05T07:58:32;99712.09;;;6.08;84.84
76132;BME280;64877;50.994;13.650;2022-12-05T08:01:09;99721.84;;;6.09;84.61
76132;BME280;64877;50.994;13.650;2022-12-05T08:03:35;99720.13;;;6.08;84.30
76132;BME280;64877;50.994;13.650;2022-12-05T08:06:03;99720.88;;;6.10;84.77
76132;BME280;64877;50.994;13.650;2022-12-05T08:08:29;99706.34;;;6.14;83.59
76132;BME280;64877;50.994;13.650;2022-12-05T08:10:54;99718.53;;;6.19;84.16
76132;BME280;64877;50.994;13.650;2022-12-05T08:13:19;99708.78;;;6.18;83.25
76132;BME280;64877;50.994;13.650;2022-12-05T08:15:45;99725.81;;;6.17;82.92
76132;BME280;64877;50.994;13.650;2022-12-05T08:18:10;99728.66;;;6.14;82.98
76132;BME280;64877;50.994;13.650;2022-12-05T08:20:36;99727.81;;;6.14;83.50
76132;BME280;64877;50.994;13.650;2022-12-05T08:23:01;99730.31;;;6.17;83.88
76132;BME280;64877;50.994;13.650;2022-12-05T08:25:26;99730.81;;;6.24;83.37
76132;BME280;64877;50.994;13.650;2022-12-05T08:27:52;99732.44;;;6.26;83.22
76132;BME280;64877;50.994;13.650;2022-12-05T08:30:17;99735.81;;;6.30;82.43
76132;BME280;64877;50.994;13.650;2022-12-05T08:32:42;99741.28;;;6.28;81.40
76132;BME280;64877;50.994;13.650;2022-12-05T08:35:08;99741.06;;;6.31;82.81
76132;BME280;64877;50.994;13.650;2022-12-05T08:37:34;99736.66;;;6.30;82.12
76132;BME280;64877;50.994;13.650;2022-12-05T08:39:59;99738.31;;;6.33;81.15
76132;BME280;64877;50.994;13.650;2022-12-05T08:42:25;99737.25;;;6.35;81.72
76132;BME280;64877;50.994;13.650;2022-12-05T08:44:50;99731.91;;;6.35;81.34
76132;BME280;64877;50.994;13.650;2022-12-05T08:47:16;99731.53;;;6.41;81.74
76132;BME280;64877;50.994;13.650;2022-12-05T08:49:41;99729.63;;;6.43;81.35
76132;BME280;64877;50.994;13.650;2022-12-05T08:52:07;99730.50;;;6.44;81.46
76132;BME280;64877;50.994;13.650;2022-12-05T08:54:32;99732.91;;;6.48;81.96
76132;BME280;64877;50.994;13.650;2022-12-05T08:56:57;99738.09;;;6.52;81.46
76132;BME280;64877;50.994;13.650;2022-12-05T08:59:23;99732.91;;;6.48;81.60
76132;BME280;64877;50.994;13.650;2022-12-05T09:01:49;99744.59;;;6.47;81.47
76132;BME280;64877;50.994;13.650;2022-12-05T09:04:15;99743.81;;;6.45;81.34
76132;BME280;64877;50.994;13.650;2022-12-05T09:06:40;99756.28;;;6.46;81.68
76132;BME280;64877;50.994;13.650;2022-12-05T09:09:08;99752.81;;;6.44;81.82
76132;BME280;64877;50.994;13.650;2022-12-05T09:11:39;99758.88;;;6.48;82.04
76132;BME280;64877;50.994;13.650;2022-12-05T09:14:10;99756.00;;;6.51;80.72
76132;BME280;64877;50.994;13.650;2022-12-05T09:16:37;99766.66;;;6.53;79.78
76132;BME280;64877;50.994;13.650;2022-12-05T09:19:02;99771.16;;;6.52;79.62
76132;BME280;64877;50.994;13.650;2022-12-05T09:21:29;99767.50;;;6.53;79.22
76132;BME280;64877;50.994;13.650;2022-12-05T09:23:57;99784.63;;;6.51;79.31
76132;BME280;64877;50.994;13.650;2022-12-05T09:26:23;99786.47;;;6.50;79.69
76132;BME280;64877;50.994;13.650;2022-12-05T09:28:49;99789.06;;;6.52;79.54
76132;BME280;64877;50.994;13.650;2022-12-05T09:31:17;99781.03;;;6.52;79.06
76132;BME280;64877;50.994;13.650;2022-12-05T09:33:44;99785.44;;;6.53;79.31
76132;BME280;64877;50.994;13.650;2022-12-05T09:36:24;99782.75;;;6.53;79.79
76132;BME280;64877;50.994;13.650;2022-12-05T09:38:50;99777.50;;;6.65;78.73
76132;BME280;64877;50.994;13.650;2022-12-05T09:52:34;99781.41;;;6.60;79.22
76132;BME280;64877;50.994;13.650;2022-12-05T09:55:15;99777.88;;;6.59;78.51
76132;BME280;64877;50.994;13.650;2022-12-05T09:57:47;99781.94;;;6.66;78.12
76132;BME280;64877;50.994;13.650;2022-12-05T10:00:15;99777.50;;;6.65;78.71
76132;BME280;64877;50.994;13.650;2022-12-05T10:05:28;99783.13;;;6.61;78.42
76132;BME280;64877;50.994;13.650;2022-12-05T10:08:04;99787.56;;;6.62;78.63
76132;BME280;64877;50.994;13.650;2022-12-05T10:13:08;99800.72;;;6.66;79.52
76132;BME280;64877;50.994;13.650;2022-12-05T10:15:44;99794.66;;;6.63;78.61
76132;BME280;64877;50.994;13.650;2022-12-05T10:18:31;99795.19;;;6.54;78.96
76132;BME280;64877;50.994;13.650;2022-12-05T10:21:09;99794.34;;;6.53;79.43
76132;BME280;64877;50.994;13.650;2022-12-05T10:26:10;99785.69;;;6.48;79.36
76132;BME280;64877;50.994;13.650;2022-12-05T10:28:43;99784.63;;;6.51;78.53
76132;BME280;64877;50.994;13.650;2022-12-05T10:31:13;99780.22;;;6.50;78.28
76132;BME280;64877;50.994;13.650;2022-12-05T10:33:46;99786.41;;;6.52;78.19
76132;BME280;64877;50.994;13.650;2022-12-05T10:36:14;99774.88;;;6.50;78.83
76132;BME280;64877;50.994;13.650;2022-12-05T10:38:41;99770.47;;;6.48;78.78
76132;BME280;64877;50.994;13.650;2022-12-05T10:41:10;99770.28;;;6.52;77.93
76132;BME280;64877;50.994;13.650;2022-12-05T10:43:40;99768.53;;;6.51;78.52
76132;BME280;64877;50.994;13.650;2022-12-05T10:46:06;99771.16;;;6.52;79.06
76132;BME280;64877;50.994;13.650;2022-12-05T10:48:37;99779.00;;;6.55;78.36
76132;BME280;64877;50.994;13.650;2022-12-05T10:51:03;99767.31;;;6.56;78.69
76132;BME280;64877;50.994;13.650;2022-12-05T10:53:42;99773.56;;;6.57;79.08
76132;BME280;64877;50.994;13.650;2022-12-05T10:56:43;99778.72;;;6.60;77.34
76132;BME280;64877;50.994;13.650;2022-12-05T10:59:11;99776.06;;;6.60;78.05
76132;BME280;64877;50.994;13.650;2022-12-05T11:01:38;99768.00;;;6.60;78.10
76132;BME280;64877;50.994;13.650;2022-12-05T11:04:27;99769.72;;;6.61;78.12
76132;BME280;64877;50.994;13.650;2022-12-05T11:07:02;99773.88;;;6.66;78.87
76132;BME280;64877;50.994;13.650;2022-12-05T11:09:31;99763.31;;;6.63;77.44
76132;BME280;64877;50.994;13.650;2022-12-05T11:14:24;99770.13;;;6.69;77.93
76132;BME280;64877;50.994;13.650;2022-12-05T11:16:57;99772.66;;;6.72;77.18
76132;BME280;64877;50.994;13.650;2022-12-05T11:19:27;99770.25;;;6.67;78.22
76132;BME280;64877;50.994;13.650;2022-12-05T11:21:53;99768.59;;;6.65;77.51
76132;BME280;64877;50.994;13.650;2022-12-05T11:24:31;99766.78;;;6.65;77.28
76132;BME280;64877;50.994;13.650;2022-12-05T11:26:59;99763.16;;;6.66;77.03
76132;BME280;64877;50.994;13.650;2022-12-05T11:30:02;99757.97;;;6.63;76.64
76132;BME280;64877;50.994;13.650;2022-12-05T11:32:31;99762.47;;;6.63;78.17
76132;BME280;64877;50.994;13.650;2022-12-05T11:40:04;99764.88;;;6.67;77.44
76132;BME280;64877;50.994;13.650;2022-12-05T11:42:50;99764.34;;;6.61;76.57
76132;BME280;64877;50.994;13.650;2022-12-05T11:48:46;99769.56;;;6.64;76.17
76132;BME280;64877;50.994;13.650;2022-12-05T11:56:37;99762.25;;;6.66;76.08
76132;BME280;64877;50.994;13.650;2022-12-05T12:04:37;99767.28;;;6.72;76.19
76132;BME280;64877;50.994;13.650;2022-12-05T12:12:50;99754.03;;;6.69;75.47
76132;BME280;64877;50.994;13.650;2022-12-05T12:18:11;99756.63;;;6.70;76.21
76132;BME280;64877;50.994;13.650;2022-12-05T12:23:42;99752.13;;;6.71;76.08
76132;BME280;64877;50.994;13.650;2022-12-05T12:26:41;99744.06;;;6.71;75.93
76132;BME280;64877;50.994;13.650;2022-12-05T12:32:19;99735.94;;;6.72;74.86
76132;BME280;64877;50.994;13.650;2022-12-05T12:35:19;99728.94;;;6.70;75.00
76132;BME280;64877;50.994;13.650;2022-12-05T12:50:43;99719.84;;;6.72;75.34
76132;BME280;64877;50.994;13.650;2022-12-05T12:53:19;99726.94;;;6.73;74.72
76132;BME280;64877;50.994;13.650;2022-12-05T12:55:59;99734.97;;;6.73;75.12
76132;BME280;64877;50.994;13.650;2022-12-05T12:58:42;99727.78;;;6.74;74.16
76132;BME280;64877;50.994;13.650;2022-12-05T13:01:20;99725.09;;;6.74;75.93
76132;BME280;64877;50.994;13.650;2022-12-05T13:03:56;99725.88;;;6.76;74.87
76132;BME280;64877;50.994;13.650;2022-12-05T13:09:46;99731.34;;;6.74;74.77
76132;BME280;64877;50.994;13.650;2022-12-05T13:12:16;99738.53;;;6.74;75.12
76132;BME280;64877;50.994;13.650;2022-12-05T13:14:50;99731.44;;;6.73;76.00
76132;BME280;64877;50.994;13.650;2022-12-05T13:17:19;99732.97;;;6.77;75.18
76132;BME280;64877;50.994;13.650;2022-12-05T13:19:51;99731.91;;;6.80;75.03
76132;BME280;64877;50.994;13.650;2022-12-05T13:22:19;99732.88;;;6.79;75.51
76132;BME280;64877;50.994;13.650;2022-12-05T13:24:45;99741.91;;;6.78;75.62
76132;BME280;64877;50.994;13.650;2022-12-05T13:27:16;99735.38;;;6.82;74.53
76132;BME280;64877;50.994;13.650;2022-12-05T13:30:03;99734.50;;;6.81;75.34
76132;BME280;64877;50.994;13.650;2022-12-05T13:32:37;99744.19;;;6.84;75.79
76132;BME280;64877;50.994;13.650;2022-12-05T13:35:33;99753.22;;;6.83;75.13
76132;BME280;64877;50.994;13.650;2022-12-05T13:38:22;99759.28;;;6.86;75.14
76132;BME280;64877;50.994;13.650;2022-12-05T13:41:09;99761.16;;;6.84;75.28
76132;BME280;64877;50.994;13.650;2022-12-05T13:43:53;99759.28;;;6.86;74.84
76132;BME280;64877;50.994;13.650;2022-12-05T13:46:28;99753.78;;;6.88;74.27
76132;BME280;64877;50.994;13.650;2022-12-05T13:49:02;99763.75;;;6.86;75.26
76132;BME280;64877;50.994;13.650;2022-12-05T13:51:36;99762.88;;;6.85;75.46
76132;BME280;64877;50.994;13.650;2022-12-05T13:54:15;99761.94;;;6.86;75.05
76132;BME280;64877;50.994;13.650;2022-12-05T13:56:57;99760.72;;;6.92;74.81
76132;BME280;64877;50.994;13.650;2022-12-05T14:07:55;99763.75;;;6.86;76.34
76132;BME280;64877;50.994;13.650;2022-12-05T14:12:54;99763.00;;;6.84;77.09
76132;BME280;64877;50.994;13.650;2022-12-05T14:15:35;99761.66;;;6.77;77.17
76132;BME280;64877;50.994;13.650;2022-12-05T14:18:48;99762.09;;;6.69;77.72
76132;BME280;64877;50.994;13.650;2022-12-05T14:21:33;99760.00;;;6.74;77.78
76132;BME280;64877;50.994;13.650;2022-12-05T14:32:32;99758.50;;;6.54;77.97
76132;BME280;64877;50.994;13.650;2022-12-05T14:37:39;99768.38;;;6.54;78.71
76132;BME280;64877;50.994;13.650;2022-12-05T14:42:55;99766.44;;;6.56;78.13
76132;BME280;64877;50.994;13.650;2022-12-05T14:45:31;99764.41;;;6.45;79.12
76132;BME280;64877;50.994;13.650;2022-12-05T14:47:59;99763.00;;;6.54;80.49
76132;BME280;64877;50.994;13.650;2022-12-05T14:50:39;99767.03;;;6.61;79.85
76132;BME280;64877;50.994;13.650;2022-12-05T15:01:26;99766.38;;;6.57;78.62
76132;BME280;64877;50.994;13.650;2022-12-05T15:04:08;99766.13;;;6.62;78.93
76132;BME280;64877;50.994;13.650;2022-12-05T15:06:43;99768.69;;;6.63;78.30
76132;BME280;64877;50.994;13.650;2022-12-05T15:09:26;99777.00;;;6.59;78.60
76132;BME280;64877;50.994;13.650;2022-12-05T15:11:53;99776.53;;;6.52;79.28
76132;BME280;64877;50.994;13.650;2022-12-05T15:14:22;99772.19;;;6.50;78.73
76132;BME280;64877;50.994;13.650;2022-12-05T15:16:51;99777.38;;;6.53;78.44
76132;BME280;64877;50.994;13.650;2022-12-05T15:19:22;99775.84;;;6.48;79.28
76132;BME280;64877;50.994;13.650;2022-12-05T15:21:56;99785.97;;;6.43;79.27
76132;BME280;64877;50.994;13.650;2022-12-05T15:24:23;99787.53;;;6.47;78.64
76132;BME280;64877;50.994;13.650;2022-12-05T15:26:54;99786.94;;;6.42;79.01
76132;BME280;64877;50.994;13.650;2022-12-05T15:32:05;99783.28;;;6.43;78.98
76132;BME280;64877;50.994;13.650;2022-12-05T15:35:01;99776.78;;;6.47;79.91